Time,TemperatureF,DewpointF,PressureIn,WindDirection,WindDirectionDegrees,WindSpeedMPH,WindSpeedGustMPH,Humidity,HourlyPrecipIn,Conditions,Clouds,dailyrainin,SoftwareType,DateUTC
2013-05-27 00:12:00,44.6,44.1,29.79,NNE,22,0.0,-999.0,98,-99.99,,,0.00,Acu-Link.com,2013-05-27 07:12:00,
2013-05-27 00:27:00,44.6,44.1,29.79,ESE,112,0.0,-999.0,98,-99.99,,,0.00,Acu-Link.com,2013-05-27 07:27:00,
2013-05-27 00:43:00,42.8,42.3,29.79,ESE,112,0.0,-999.0,98,-99.99,,,0.00,Acu-Link.com,2013-05-27 07:43:00,
2013-05-27 00:58:00,42.8,42.3,29.79,East,90,0.0,-999.0,98,-99.99,,,0.00,Acu-Link.com,2013-05-27 07:58:00,
2013-05-27 01:14:00,42.8,42.3,29.79,NNE,22,1.1,-999.0,98,-99.99,,,0.00,Acu-Link.com,2013-05-27 08:14:00,
2013-05-27 01:29:00,42.8,42.3,29.79,ENE,67,0.0,-999.0,98,-99.99,,,0.00,Acu-Link.com,2013-05-27 08:29:00,
2013-05-27 01:44:00,42.8,42.3,29.79,NE,45,0.0,-999.0,98,-99.99,,,0.00,Acu-Link.com,2013-05-27 08:44:00,
2013-05-27 01:59:00,42.8,42.3,29.79,ENE,67,0.0,-999.0,98,-99.99,,,0.00,Acu-Link.com,2013-05-27 08:59:00,
2013-05-27 02:14:00,42.8,42.3,29.79,ESE,112,0.0,-999.0,98,-99.99,,,0.00,Acu-Link.com,2013-05-27 09:14:00,
2013-05-27 02:29:00,42.8,42.3,29.78,ESE,112,0.0,-999.0,98,-99.99,,,0.00,Acu-Link.com,2013-05-27 09:29:00,
2013-05-27 02:45:00,42.8,42.3,29.78,SSE,157,0.0,-999.0,98,-99.99,,,0.00,Acu-Link.com,2013-05-27 09:45:00,
2013-05-27 03:00:00,42.8,42.3,29.77,SE,135,0.0,-999.0,98,-99.99,,,0.00,Acu-Link.com,2013-05-27 10:00:00,
2013-05-27 03:15:00,41.0,40.5,29.77,East,90,0.0,-999.0,98,-99.99,,,0.00,Acu-Link.com,2013-05-27 10:15:00,
2013-05-27 03:30:00,41.0,40.5,29.77,ENE,67,0.0,-999.0,98,-99.99,,,0.00,Acu-Link.com,2013-05-27 10:30:00,
2013-05-27 03:45:00,41.0,40.5,29.77,ENE,67,0.0,-999.0,98,-99.99,,,0.00,Acu-Link.com,2013-05-27 10:45:00,
2013-05-27 04:00:00,41.0,40.5,29.77,ESE,112,0.0,-999.0,98,-99.99,,,0.00,Acu-Link.com,2013-05-27 11:00:00,
2013-05-27 04:15:00,41.0,40.5,29.77,SE,135,1.1,-999.0,98,-99.99,,,0.00,Acu-Link.com,2013-05-27 11:15:00,
2013-05-27 04:31:00,41.0,40.5,29.77,East,90,0.0,-999.0,98,-99.99,,,0.00,Acu-Link.com,2013-05-27 11:31:00,
2013-05-27 04:46:00,41.0,40.5,29.77,ESE,112,0.0,-999.0,98,-99.99,,,0.00,Acu-Link.com,2013-05-27 11:46:00,
2013-05-27 05:01:00,41.0,40.5,29.77,ESE,112,0.0,-999.0,98,-99.99,,,0.00,Acu-Link.com,2013-05-27 12:01:00,
2013-05-27 05:16:00,41.0,40.5,29.76,ESE,112,0.0,-999.0,98,-99.99,,,0.00,Acu-Link.com,2013-05-27 12:16:00,
2013-05-27 05:32:00,41.0,40.5,29.77,ESE,112,0.0,-999.0,98,-99.99,,,0.00,Acu-Link.com,2013-05-27 12:32:00,
2013-05-27 05:47:00,41.0,40.5,29.76,ESE,112,0.0,-999.0,98,-99.99,,,0.00,Acu-Link.com,2013-05-27 12:47:00,
2013-05-27 06:02:00,41.0,40.5,29.77,ESE,112,0.0,-999.0,98,-99.99,,,0.00,Acu-Link.com,2013-05-27 13:02:00,
2013-05-27 06:17:00,42.8,42.3,29.76,ESE,112,0.0,-999.0,98,-99.99,,,0.00,Acu-Link.com,2013-05-27 13:17:00,
2013-05-27 06:32:00,42.8,42.3,29.75,ESE,112,0.0,-999.0,98,-99.99,,,0.00,Acu-Link.com,2013-05-27 13:32:00,
2013-05-27 06:47:00,42.8,42.3,29.75,ESE,112,0.0,-999.0,98,-99.99,,,0.00,Acu-Link.com,2013-05-27 13:47:00,
2013-05-27 07:02:00,42.8,42.3,29.75,ESE,112,2.0,-999.0,98,-99.99,,,0.00,Acu-Link.com,2013-05-27 14:02:00,
2013-05-27 07:17:00,44.6,41.9,29.74,SSE,157,2.0,-999.0,90,-99.99,,,0.00,Acu-Link.com,2013-05-27 14:17:00,
2013-05-27 07:32:00,44.6,41.6,29.74,SSW,202,2.0,-999.0,89,-99.99,,,0.00,Acu-Link.com,2013-05-27 14:32:00,
2013-05-27 07:47:00,44.6,41.6,29.74,East,90,0.0,-999.0,89,-99.99,,,0.00,Acu-Link.com,2013-05-27 14:47:00,
2013-05-27 08:02:00,46.4,42.7,29.74,West,270,1.1,-999.0,87,-99.99,,,0.00,Acu-Link.com,2013-05-27 15:02:00,
2013-05-27 08:17:00,46.4,42.1,29.73,SE,135,0.0,-999.0,85,-99.99,,,0.00,Acu-Link.com,2013-05-27 15:17:00,
2013-05-27 08:32:00,46.4,41.5,29.73,ESE,112,1.6,-999.0,83,-99.99,,,0.00,Acu-Link.com,2013-05-27 15:32:00,
2013-05-27 08:48:00,46.4,41.2,29.73,South,180,0.0,-999.0,82,-99.99,,,0.00,Acu-Link.com,2013-05-27 15:48:00,
2013-05-27 09:03:00,48.2,42.0,29.72,WSW,247,2.7,-999.0,79,-99.99,,,0.00,Acu-Link.com,2013-05-27 16:03:00,
2013-05-27 09:18:00,50.0,43.1,29.71,ESE,112,0.0,-999.0,77,-99.99,,,0.00,Acu-Link.com,2013-05-27 16:18:00,
2013-05-27 09:33:00,51.8,44.5,29.71,ESE,112,2.7,-999.0,76,-99.99,,,0.00,Acu-Link.com,2013-05-27 16:33:00,
2013-05-27 09:48:00,51.8,41.6,29.70,West,270,4.7,-999.0,68,-99.99,,,0.00,Acu-Link.com,2013-05-27 16:48:00,
2013-05-27 10:03:00,53.6,42.5,29.70,SSE,157,3.1,-999.0,66,-99.99,,,0.00,Acu-Link.com,2013-05-27 17:03:00,
2013-05-27 10:18:00,51.8,41.6,29.70,ESE,112,2.7,-999.0,68,-99.99,,,0.00,Acu-Link.com,2013-05-27 17:18:00,
2013-05-27 10:34:00,55.4,42.6,29.70,SE,135,3.6,-999.0,62,-99.99,,,0.00,Acu-Link.com,2013-05-27 17:34:00,
2013-05-27 10:49:00,55.4,41.7,29.69,West,270,1.6,-999.0,60,-99.99,,,0.00,Acu-Link.com,2013-05-27 17:49:00,
2013-05-27 11:04:00,55.4,40.9,29.69,NNW,337,2.0,-999.0,58,-99.99,,,0.00,Acu-Link.com,2013-05-27 18:04:00,
2013-05-27 11:20:00,59.0,42.4,29.68,South,180,3.6,-999.0,54,-99.99,,,0.00,Acu-Link.com,2013-05-27 18:20:00,
2013-05-27 11:35:00,60.8,44.0,29.68,ESE,112,2.0,-999.0,54,-99.99,,,0.00,Acu-Link.com,2013-05-27 18:35:00,
2013-05-27 11:50:00,59.0,43.3,29.67,SSE,157,2.7,-999.0,56,-99.99,,,0.00,Acu-Link.com,2013-05-27 18:50:00,
2013-05-27 12:05:00,62.6,44.7,29.66,ESE,112,2.7,-999.0,52,-99.99,,,0.00,Acu-Link.com,2013-05-27 19:05:00,
2013-05-27 12:21:00,62.6,43.7,29.65,SSE,157,3.1,-999.0,50,-99.99,,,0.00,Acu-Link.com,2013-05-27 19:21:00,
2013-05-27 12:36:00,59.0,42.4,29.65,North,0,2.0,-999.0,54,-99.99,,,0.00,Acu-Link.com,2013-05-27 19:36:00,
2013-05-27 12:51:00,59.0,42.9,29.65,South,180,3.1,-999.0,55,-99.99,,,0.00,Acu-Link.com,2013-05-27 19:51:00,
2013-05-27 13:06:00,60.8,42.6,29.64,ESE,112,2.0,-999.0,51,-99.99,,,0.00,Acu-Link.com,2013-05-27 20:06:00,
2013-05-27 13:21:00,59.0,42.4,29.64,SSW,202,5.1,-999.0,54,-99.99,,,0.00,Acu-Link.com,2013-05-27 20:21:00,
2013-05-27 13:37:00,57.2,43.4,29.64,SSE,157,1.6,-999.0,60,-99.99,,,0.00,Acu-Link.com,2013-05-27 20:37:00,
2013-05-27 13:52:00,60.8,42.0,29.64,SSE,157,3.1,-999.0,50,-99.99,,,0.00,Acu-Link.com,2013-05-27 20:52:00,
2013-05-27 14:07:00,60.8,44.0,29.63,ESE,112,4.0,-999.0,54,-99.99,,,0.00,Acu-Link.com,2013-05-27 21:07:00,
2013-05-27 14:22:00,60.8,42.6,29.62,ESE,112,2.7,-999.0,51,-99.99,,,0.00,Acu-Link.com,2013-05-27 21:22:00,
2013-05-27 14:37:00,60.8,43.6,29.62,SE,135,2.7,-999.0,53,-99.99,,,0.00,Acu-Link.com,2013-05-27 21:37:00,
2013-05-27 14:52:00,59.0,41.4,29.62,ESE,112,0.0,-999.0,52,-99.99,,,0.00,Acu-Link.com,2013-05-27 21:52:00,
2013-05-27 15:08:00,59.0,42.9,29.61,SSE,157,2.0,-999.0,55,-99.99,,,0.00,Acu-Link.com,2013-05-27 22:08:00,
2013-05-27 15:23:00,59.0,43.3,29.61,NW,315,3.1,-999.0,56,-99.99,,,0.00,Acu-Link.com,2013-05-27 22:23:00,
2013-05-27 15:38:00,62.6,45.2,29.61,SSE,157,2.0,-999.0,53,-99.99,,,0.00,Acu-Link.com,2013-05-27 22:38:00,
2013-05-27 15:54:00,60.8,44.0,29.61,South,180,2.0,-999.0,54,-99.99,,,0.00,Acu-Link.com,2013-05-27 22:54:00,
2013-05-27 16:09:00,60.8,44.5,29.60,ESE,112,2.0,-999.0,55,-99.99,,,0.00,Acu-Link.com,2013-05-27 23:09:00,
2013-05-27 16:24:00,57.2,41.2,29.60,East,90,3.1,-999.0,55,-99.99,,,0.00,Acu-Link.com,2013-05-27 23:24:00,
2013-05-27 16:39:00,57.2,42.6,29.61,SSE,157,2.7,-999.0,58,-99.99,,,0.00,Acu-Link.com,2013-05-27 23:39:00,
2013-05-27 16:54:00,55.4,42.2,29.61,ESE,112,3.1,-999.0,61,-99.99,,,0.00,Acu-Link.com,2013-05-27 23:54:00,
2013-05-27 17:09:00,55.4,43.0,29.62,East,90,2.0,-999.0,63,-99.99,,,0.00,Acu-Link.com,2013-05-28 00:09:00,
2013-05-27 17:24:00,55.4,43.4,29.61,ESE,112,3.6,-999.0,64,-99.99,,,0.00,Acu-Link.com,2013-05-28 00:24:00,
2013-05-27 17:40:00,57.2,45.1,29.61,NE,45,0.0,-999.0,64,-99.99,,,0.00,Acu-Link.com,2013-05-28 00:40:00,
2013-05-27 17:55:00,55.4,41.7,29.61,South,180,2.7,-999.0,60,-99.99,,,0.00,Acu-Link.com,2013-05-28 00:55:00,
2013-05-27 18:10:00,57.2,43.0,29.61,ESE,112,0.0,-999.0,59,-99.99,,,0.00,Acu-Link.com,2013-05-28 01:10:00,
2013-05-27 18:25:00,59.0,45.1,29.60,NNE,22,2.0,-999.0,60,-99.99,,,0.00,Acu-Link.com,2013-05-28 01:25:00,
2013-05-27 18:40:00,59.0,45.6,29.60,ENE,67,1.6,-999.0,61,-99.99,,,0.00,Acu-Link.com,2013-05-28 01:40:00,
2013-05-27 18:55:00,59.0,45.1,29.60,ESE,112,1.6,-999.0,60,-99.99,,,0.00,Acu-Link.com,2013-05-28 01:55:00,
2013-05-27 19:11:00,59.0,44.7,29.60,NNW,337,2.0,-999.0,59,-99.99,,,0.00,Acu-Link.com,2013-05-28 02:11:00,
2013-05-27 19:26:00,59.0,46.0,29.59,SE,135,0.0,-999.0,62,-99.99,,,0.00,Acu-Link.com,2013-05-28 02:26:00,
2013-05-27 19:41:00,57.2,45.5,29.59,ENE,67,0.0,-999.0,65,-99.99,,,0.00,Acu-Link.com,2013-05-28 02:41:00,
2013-05-27 19:56:00,51.8,45.2,29.61,South,180,3.1,-999.0,78,-99.99,,,0.01,Acu-Link.com,2013-05-28 02:56:00,
2013-05-27 20:11:00,50.0,46.3,29.62,ENE,67,0.0,-999.0,87,-99.99,,,0.08,Acu-Link.com,2013-05-28 03:11:00,
2013-05-27 20:26:00,50.0,46.6,29.61,SSE,157,0.0,-999.0,88,-99.99,,,0.13,Acu-Link.com,2013-05-28 03:26:00,
2013-05-27 20:41:00,48.2,44.8,29.60,SSE,157,1.6,-999.0,88,-99.99,,,0.17,Acu-Link.com,2013-05-28 03:41:00,
2013-05-27 20:57:00,48.2,45.1,29.61,SSE,157,0.0,-999.0,89,-99.99,,,0.17,Acu-Link.com,2013-05-28 03:57:00,
2013-05-27 21:12:00,46.4,45.9,29.61,East,90,0.0,-999.0,98,-99.99,,,0.17,Acu-Link.com,2013-05-28 04:12:00,
2013-05-27 21:27:00,46.4,45.9,29.62,East,90,0.0,-999.0,98,-99.99,,,0.17,Acu-Link.com,2013-05-28 04:27:00,
2013-05-27 21:42:00,46.4,45.9,29.62,ESE,112,1.6,-999.0,98,-99.99,,,0.17,Acu-Link.com,2013-05-28 04:42:00,
2013-05-27 21:58:00,46.4,45.9,29.62,ESE,112,2.7,-999.0,98,-99.99,,,0.17,Acu-Link.com,2013-05-28 04:58:00,
2013-05-27 22:13:00,46.4,45.9,29.62,ESE,112,1.6,-999.0,98,-99.99,,,0.17,Acu-Link.com,2013-05-28 05:13:00,
2013-05-27 22:28:00,46.4,45.9,29.62,ESE,112,2.0,-999.0,98,-99.99,,,0.17,Acu-Link.com,2013-05-28 05:28:00,
2013-05-27 22:43:00,46.4,45.9,29.62,ESE,112,2.0,-999.0,98,-99.99,,,0.17,Acu-Link.com,2013-05-28 05:43:00,
2013-05-27 22:59:00,46.4,45.9,29.62,ESE,112,1.6,-999.0,98,-99.99,,,0.17,Acu-Link.com,2013-05-28 05:59:00,
2013-05-27 23:14:00,46.4,45.9,29.62,SE,135,1.6,-999.0,98,-99.99,,,0.17,Acu-Link.com,2013-05-28 06:14:00,
2013-05-27 23:29:00,46.4,45.9,29.62,ESE,112,2.0,-999.0,98,-99.99,,,0.17,Acu-Link.com,2013-05-28 06:29:00,
2013-05-27 23:44:00,46.4,45.9,29.62,South,180,0.0,-999.0,98,-99.99,,,0.17,Acu-Link.com,2013-05-28 06:44:00,
2013-05-27 23:59:00,46.4,45.9,29.62,East,90,0.0,-999.0,98,-99.99,,,0.17,Acu-Link.com,2013-05-28 06:59:00,